sensor_id;sensor_type;location;lat;lon;timestamp;temperature;humidity
7516;DHT22;3799;47.184;8.538;2023-11-21T00:00:36;9.50;99.90
7516;DHT22;3799;47.184;8.538;2023-11-21T00:03:04;9.40;99.90
7516;DHT22;3799;47.184;8.538;2023-11-21T00:05:33;9.50;99.90
7516;DHT22;3799;47.184;8.538;2023-11-21T00:08:00;9.40;99.90
7516;DHT22;3799;47.184;8.538;2023-11-21T00:10:30;9.60;99.90
7516;DHT22;3799;47.184;8.538;2023-11-21T00:12:58;9.60;99.90
7516;DHT22;3799;47.184;8.538;2023-11-21T00:15:25;9.60;99.90
7516;DHT22;3799;47.184;8.538;2023-11-21T00:17:53;9.50;99.90
7516;DHT22;3799;47.184;8.538;2023-11-21T00:20:21;9.50;99.90
7516;DHT22;3799;47.184;8.538;2023-11-21T00:22:49;9.50;99.90
7516;DHT22;3799;47.184;8.538;2023-11-21T00:25:16;9.70;99.90
7516;DHT22;3799;47.184;8.538;2023-11-21T00:27:44;9.70;99.90
7516;DHT22;3799;47.184;8.538;2023-11-21T00:30:12;9.70;99.90
7516;DHT22;3799;47.184;8.538;2023-11-21T00:32:40;9.70;99.90
7516;DHT22;3799;47.184;8.538;2023-11-21T00:35:08;9.70;99.90
7516;DHT22;3799;47.184;8.538;2023-11-21T00:37:36;9.90;99.90
7516;DHT22;3799;47.184;8.538;2023-11-21T00:40:04;9.70;99.90
7516;DHT22;3799;47.184;8.538;2023-11-21T00:42:32;9.80;99.90
7516;DHT22;3799;47.184;8.538;2023-11-21T00:45:01;9.60;99.90
7516;DHT22;3799;47.184;8.538;2023-11-21T00:47:28;10.00;99.90
7516;DHT22;3799;47.184;8.538;2023-11-21T00:49:55;9.70;99.90
7516;DHT22;3799;47.184;8.538;2023-11-21T00:52:24;9.80;99.90
7516;DHT22;3799;47.184;8.538;2023-11-21T00:54:51;9.80;99.90
7516;DHT22;3799;47.184;8.538;2023-11-21T00:57:18;10.00;99.90
7516;DHT22;3799;47.184;8.538;2023-11-21T00:59:47;9.60;99.90
7516;DHT22;3799;47.184;8.538;2023-11-21T01:02:14;9.80;99.90
7516;DHT22;3799;47.184;8.538;2023-11-21T01:04:41;9.90;99.90
7516;DHT22;3799;47.184;8.538;2023-11-21T01:07:09;9.90;99.90
7516;DHT22;3799;47.184;8.538;2023-11-21T01:09:36;10.00;99.90
7516;DHT22;3799;47.184;8.538;2023-11-21T01:12:04;9.60;99.90
7516;DHT22;3799;47.184;8.538;2023-11-21T01:14:31;10.00;99.90
7516;DHT22;3799;47.184;8.538;2023-11-21T01:16:58;9.90;99.90
7516;DHT22;3799;47.184;8.538;2023-11-21T01:19:26;9.90;99.90
7516;DHT22;3799;47.184;8.538;2023-11-21T01:21:53;9.70;99.90
7516;DHT22;3799;47.184;8.538;2023-11-21T01:24:21;9.80;99.90
7516;DHT22;3799;47.184;8.538;2023-11-21T01:26:48;9.70;99.90
7516;DHT22;3799;47.184;8.538;2023-11-21T01:29:16;9.70;99.90
7516;DHT22;3799;47.184;8.538;2023-11-21T01:31:43;9.90;99.90
7516;DHT22;3799;47.184;8.538;2023-11-21T01:34:10;9.70;99.90
7516;DHT22;3799;47.184;8.538;2023-11-21T01:36:38;9.70;99.90
7516;DHT22;3799;47.184;8.538;2023-11-21T01:39:06;9.80;99.90
7516;DHT22;3799;47.184;8.538;2023-11-21T01:41:35;9.70;99.90
7516;DHT22;3799;47.184;8.538;2023-11-21T01:44:04;9.30;99.90
7516;DHT22;3799;47.184;8.538;2023-11-21T01:46:35;9.30;99.90
7516;DHT22;3799;47.184;8.538;2023-11-21T01:49:03;9.60;99.90
7516;DHT22;3799;47.184;8.538;2023-11-21T01:51:31;9.60;99.90
7516;DHT22;3799;47.184;8.538;2023-11-21T01:54:00;9.70;99.90
7516;DHT22;3799;47.184;8.538;2023-11-21T01:56:28;9.60;99.90
7516;DHT22;3799;47.184;8.538;2023-11-21T01:58:55;9.60;99.90
7516;DHT22;3799;47.184;8.538;2023-11-21T02:01:24;9.60;99.90
7516;DHT22;3799;47.184;8.538;2023-11-21T02:03:53;9.40;99.90
7516;DHT22;3799;47.184;8.538;2023-11-21T02:06:22;9.60;99.90
7516;DHT22;3799;47.184;8.538;2023-11-21T02:08:49;9.60;99.90
7516;DHT22;3799;47.184;8.538;2023-11-21T02:11:17;9.70;99.90
7516;DHT22;3799;47.184;8.538;2023-11-21T02:13:46;9.50;99.90
7516;DHT22;3799;47.184;8.538;2023-11-21T02:16:16;9.60;99.90
7516;DHT22;3799;47.184;8.538;2023-11-21T02:18:44;9.60;99.90
7516;DHT22;3799;47.184;8.538;2023-11-21T02:21:12;9.70;99.90
7516;DHT22;3799;47.184;8.538;2023-11-21T02:23:40;9.60;99.90
7516;DHT22;3799;47.184;8.538;2023-11-21T02:26:11;9.70;99.90
7516;DHT22;3799;47.184;8.538;2023-11-21T02:28:38;9.60;99.90
7516;DHT22;3799;47.184;8.538;2023-11-21T02:31:08;9.50;99.90
7516;DHT22;3799;47.184;8.538;2023-11-21T02:33:36;9.90;99.90
7516;DHT22;3799;47.184;8.538;2023-11-21T02:36:04;9.60;99.90
7516;DHT22;3799;47.184;8.538;2023-11-21T02:38:32;9.90;99.90
7516;DHT22;3799;47.184;8.538;2023-11-21T02:41:00;9.70;99.90
7516;DHT22;3799;47.184;8.538;2023-11-21T02:43:27;9.70;99.90
7516;DHT22;3799;47.184;8.538;2023-11-21T02:45:58;9.80;99.90
7516;DHT22;3799;47.184;8.538;2023-11-21T02:48:25;9.90;99.90
7516;DHT22;3799;47.184;8.538;2023-11-21T02:50:53;10.00;99.90
7516;DHT22;3799;47.184;8.538;2023-11-21T02:53:20;9.90;99.90
7516;DHT22;3799;47.184;8.538;2023-11-21T02:55:47;9.70;99.90
7516;DHT22;3799;47.184;8.538;2023-11-21T02:58:15;10.00;99.90
7516;DHT22;3799;47.184;8.538;2023-11-21T03:00:43;10.00;99.90
7516;DHT22;3799;47.184;8.538;2023-11-21T03:03:10;9.70;99.90
7516;DHT22;3799;47.184;8.538;2023-11-21T03:05:38;9.80;99.90
7516;DHT22;3799;47.184;8.538;2023-11-21T03:08:05;9.60;99.90
7516;DHT22;3799;47.184;8.538;2023-11-21T03:10:33;9.60;99.90
7516;DHT22;3799;47.184;8.538;2023-11-21T03:13:00;9.40;99.90
7516;DHT22;3799;47.184;8.538;2023-11-21T03:15:27;9.60;99.90
7516;DHT22;3799;47.184;8.538;2023-11-21T03:17:55;9.50;99.90
7516;DHT22;3799;47.184;8.538;2023-11-21T03:20:22;9.30;99.90
7516;DHT22;3799;47.184;8.538;2023-11-21T03:22:50;9.40;99.90
7516;DHT22;3799;47.184;8.538;2023-11-21T03:25:18;9.30;99.90
7516;DHT22;3799;47.184;8.538;2023-11-21T03:27:45;9.20;99.90
7516;DHT22;3799;47.184;8.538;2023-11-21T03:30:13;9.30;99.90
7516;DHT22;3799;47.184;8.538;2023-11-21T03:32:40;9.00;99.90
7516;DHT22;3799;47.184;8.538;2023-11-21T03:35:08;9.30;99.90
7516;DHT22;3799;47.184;8.538;2023-11-21T03:37:35;9.00;99.90
7516;DHT22;3799;47.184;8.538;2023-11-21T03:40:06;8.90;99.90
7516;DHT22;3799;47.184;8.538;2023-11-21T03:42:35;9.10;99.90
7516;DHT22;3799;47.184;8.538;2023-11-21T03:45:02;8.90;99.90
7516;DHT22;3799;47.184;8.538;2023-11-21T03:47:30;8.90;99.90
7516;DHT22;3799;47.184;8.538;2023-11-21T03:49:58;8.70;99.90
7516;DHT22;3799;47.184;8.538;2023-11-21T03:52:25;8.70;99.90
7516;DHT22;3799;47.184;8.538;2023-11-21T03:54:55;8.60;99.90
7516;DHT22;3799;47.184;8.538;2023-11-21T03:57:23;8.80;99.90
7516;DHT22;3799;47.184;8.538;2023-11-21T03:59:51;8.50;99.90
7516;DHT22;3799;47.184;8.538;2023-11-21T04:02:18;8.50;99.90
7516;DHT22;3799;47.184;8.538;2023-11-21T04:04:46;8.60;99.90
7516;DHT22;3799;47.184;8.538;2023-11-21T04:07:14;8.50;99.90
7516;DHT22;3799;47.184;8.538;2023-11-21T04:09:43;8.50;99.90
7516;DHT22;3799;47.184;8.538;2023-11-21T04:12:13;8.40;99.90
7516;DHT22;3799;47.184;8.538;2023-11-21T04:14:41;8.60;99.90
7516;DHT22;3799;47.184;8.538;2023-11-21T04:17:08;8.60;99.90
7516;DHT22;3799;47.184;8.538;2023-11-21T04:19:37;8.40;99.90
7516;DHT22;3799;47.184;8.538;2023-11-21T04:22:04;8.80;99.90
7516;DHT22;3799;47.184;8.538;2023-11-21T04:24:31;8.50;99.90
7516;DHT22;3799;47.184;8.538;2023-11-21T04:26:59;8.60;99.90
7516;DHT22;3799;47.184;8.538;2023-11-21T04:29:27;8.60;99.90
7516;DHT22;3799;47.184;8.538;2023-11-21T04:31:55;8.50;99.90
7516;DHT22;3799;47.184;8.538;2023-11-21T04:34:22;8.70;99.90
7516;DHT22;3799;47.184;8.538;2023-11-21T04:36:50;8.80;99.90
7516;DHT22;3799;47.184;8.538;2023-11-21T04:39:17;8.60;99.90
7516;DHT22;3799;47.184;8.538;2023-11-21T04:41:45;8.50;99.90
7516;DHT22;3799;47.184;8.538;2023-11-21T04:44:12;8.70;99.90
7516;DHT22;3799;47.184;8.538;2023-11-21T04:46:40;8.60;99.90
7516;DHT22;3799;47.184;8.538;2023-11-21T04:49:07;8.60;99.90
7516;DHT22;3799;47.184;8.538;2023-11-21T04:51:35;8.50;99.90
7516;DHT22;3799;47.184;8.538;2023-11-21T04:54:04;8.40;99.90
7516;DHT22;3799;47.184;8.538;2023-11-21T04:56:32;8.30;99.90
7516;DHT22;3799;47.184;8.538;2023-11-21T04:59:00;8.60;99.90
7516;DHT22;3799;47.184;8.538;2023-11-21T05:01:27;8.50;99.90
7516;DHT22;3799;47.184;8.538;2023-11-21T05:03:55;8.50;99.90
7516;DHT22;3799;47.184;8.538;2023-11-21T05:06:24;8.60;99.90
7516;DHT22;3799;47.184;8.538;2023-11-21T05:08:51;8.60;99.90
7516;DHT22;3799;47.184;8.538;2023-11-21T05:11:28;8.70;99.90
7516;DHT22;3799;47.184;8.538;2023-11-21T05:13:59;8.60;99.90
7516;DHT22;3799;47.184;8.538;2023-11-21T05:16:30;8.50;99.90
7516;DHT22;3799;47.184;8.538;2023-11-21T05:18:59;8.40;99.90
7516;DHT22;3799;47.184;8.538;2023-11-21T05:21:28;8.60;99.90
7516;DHT22;3799;47.184;8.538;2023-11-21T05:23:57;8.40;99.90
7516;DHT22;3799;47.184;8.538;2023-11-21T05:26:25;8.50;99.90
7516;DHT22;3799;47.184;8.538;2023-11-21T05:28:52;8.70;99.90
7516;DHT22;3799;47.184;8.538;2023-11-21T05:31:20;8.50;99.90
7516;DHT22;3799;47.184;8.538;2023-11-21T05:33:48;8.50;99.90
7516;DHT22;3799;47.184;8.538;2023-11-21T05:36:15;8.40;99.90
7516;DHT22;3799;47.184;8.538;2023-11-21T05:38:42;8.60;99.90
7516;DHT22;3799;47.184;8.538;2023-11-21T05:41:10;8.40;99.90
7516;DHT22;3799;47.184;8.538;2023-11-21T05:43:40;8.60;99.90
7516;DHT22;3799;47.184;8.538;2023-11-21T05:46:08;8.50;99.90
7516;DHT22;3799;47.184;8.538;2023-11-21T05:48:36;8.70;99.90
7516;DHT22;3799;47.184;8.538;2023-11-21T05:51:06;8.20;99.90
7516;DHT22;3799;47.184;8.538;2023-11-21T05:53:34;8.50;99.90
7516;DHT22;3799;47.184;8.538;2023-11-21T05:56:01;8.60;99.90
7516;DHT22;3799;47.184;8.538;2023-11-21T05:58:30;8.60;99.90
7516;DHT22;3799;47.184;8.538;2023-11-21T06:00:58;8.30;99.90
7516;DHT22;3799;47.184;8.538;2023-11-21T06:03:26;8.40;99.90
7516;DHT22;3799;47.184;8.538;2023-11-21T06:05:53;8.40;99.90
7516;DHT22;3799;47.184;8.538;2023-11-21T06:08:21;8.40;99.90
7516;DHT22;3799;47.184;8.538;2023-11-21T06:10:48;8.20;99.90
7516;DHT22;3799;47.184;8.538;2023-11-21T06:13:16;8.30;99.90
7516;DHT22;3799;47.184;8.538;2023-11-21T06:15:48;8.40;99.90
7516;DHT22;3799;47.184;8.538;2023-11-21T06:18:16;8.30;99.90
7516;DHT22;3799;47.184;8.538;2023-11-21T06:20:46;8.00;99.90
7516;DHT22;3799;47.184;8.538;2023-11-21T06:23:14;8.40;99.90
7516;DHT22;3799;47.184;8.538;2023-11-21T06:25:43;8.20;99.90
7516;DHT22;3799;47.184;8.538;2023-11-21T06:28:11;8.40;99.90
7516;DHT22;3799;47.184;8.538;2023-11-21T06:30:38;8.10;99.90
7516;DHT22;3799;47.184;8.538;2023-11-21T06:33:06;8.20;99.90
7516;DHT22;3799;47.184;8.538;2023-11-21T06:35:37;7.90;99.90
7516;DHT22;3799;47.184;8.538;2023-11-21T06:38:05;8.10;99.90
7516;DHT22;3799;47.184;8.538;2023-11-21T06:40:36;8.20;99.90
7516;DHT22;3799;47.184;8.538;2023-11-21T06:43:03;8.40;99.90
7516;DHT22;3799;47.184;8.538;2023-11-21T06:45:34;8.30;99.90
7516;DHT22;3799;47.184;8.538;2023-11-21T06:48:01;8.20;99.90
7516;DHT22;3799;47.184;8.538;2023-11-21T06:50:29;8.30;99.90
7516;DHT22;3799;47.184;8.538;2023-11-21T06:52:57;8.20;99.90
7516;DHT22;3799;47.184;8.538;2023-11-21T06:55:24;8.20;99.90
7516;DHT22;3799;47.184;8.538;2023-11-21T06:57:52;8.30;99.90
7516;DHT22;3799;47.184;8.538;2023-11-21T07:00:20;8.30;99.90
7516;DHT22;3799;47.184;8.538;2023-11-21T07:02:47;8.20;99.90
7516;DHT22;3799;47.184;8.538;2023-11-21T07:05:15;8.30;99.90
7516;DHT22;3799;47.184;8.538;2023-11-21T07:07:42;8.10;99.90
7516;DHT22;3799;47.184;8.538;2023-11-21T07:10:10;8.40;99.90
7516;DHT22;3799;47.184;8.538;2023-11-21T07:12:38;8.30;99.90
7516;DHT22;3799;47.184;8.538;2023-11-21T07:15:05;8.40;99.90
7516;DHT22;3799;47.184;8.538;2023-11-21T07:17:36;8.30;99.90
7516;DHT22;3799;47.184;8.538;2023-11-21T07:20:07;8.10;99.90
7516;DHT22;3799;47.184;8.538;2023-11-21T07:22:35;8.40;99.90
7516;DHT22;3799;47.184;8.538;2023-11-21T07:25:03;8.30;99.90
7516;DHT22;3799;47.184;8.538;2023-11-21T07:27:30;8.40;99.90
7516;DHT22;3799;47.184;8.538;2023-11-21T07:29:57;8.40;99.90
7516;DHT22;3799;47.184;8.538;2023-11-21T07:32:24;8.40;99.90
7516;DHT22;3799;47.184;8.538;2023-11-21T07:34:52;8.40;99.90
7516;DHT22;3799;47.184;8.538;2023-11-21T07:37:19;8.30;99.90
7516;DHT22;3799;47.184;8.538;2023-11-21T07:39:46;8.30;99.90
7516;DHT22;3799;47.184;8.538;2023-11-21T07:42:14;8.40;99.90
7516;DHT22;3799;47.184;8.538;2023-11-21T07:44:41;8.30;99.90
7516;DHT22;3799;47.184;8.538;2023-11-21T07:47:08;8.30;99.90
7516;DHT22;3799;47.184;8.538;2023-11-21T07:49:36;8.40;99.90
7516;DHT22;3799;47.184;8.538;2023-11-21T07:52:03;8.20;99.90
7516;DHT22;3799;47.184;8.538;2023-11-21T07:54:31;8.40;99.90
7516;DHT22;3799;47.184;8.538;2023-11-21T07:56:58;8.30;99.90
7516;DHT22;3799;47.184;8.538;2023-11-21T07:59:26;8.50;99.90
7516;DHT22;3799;47.184;8.538;2023-11-21T08:01:53;8.30;99.90
7516;DHT22;3799;47.184;8.538;2023-11-21T08:04:21;8.50;99.90
7516;DHT22;3799;47.184;8.538;2023-11-21T08:06:49;8.60;99.90
7516;DHT22;3799;47.184;8.538;2023-11-21T08:09:16;8.60;99.90
7516;DHT22;3799;47.184;8.538;2023-11-21T08:11:44;8.80;99.90
7516;DHT22;3799;47.184;8.538;2023-11-21T08:14:11;8.30;99.90
7516;DHT22;3799;47.184;8.538;2023-11-21T08:16:38;8.30;99.90
7516;DHT22;3799;47.184;8.538;2023-11-21T08:19:05;8.50;99.90
7516;DHT22;3799;47.184;8.538;2023-11-21T08:21:33;8.60;99.90
7516;DHT22;3799;47.184;8.538;2023-11-21T08:24:00;8.50;99.90
7516;DHT22;3799;47.184;8.538;2023-11-21T08:26:29;8.70;99.90
7516;DHT22;3799;47.184;8.538;2023-11-21T08:28:56;8.60;99.90
7516;DHT22;3799;47.184;8.538;2023-11-21T08:31:25;8.40;99.90
7516;DHT22;3799;47.184;8.538;2023-11-21T08:33:53;8.60;99.90
7516;DHT22;3799;47.184;8.538;2023-11-21T08:36:23;8.70;99.90
7516;DHT22;3799;47.184;8.538;2023-11-21T08:38:51;8.70;99.90
7516;DHT22;3799;47.184;8.538;2023-11-21T08:41:19;8.80;99.90
7516;DHT22;3799;47.184;8.538;2023-11-21T08:43:50;8.80;99.90
7516;DHT22;3799;47.184;8.538;2023-11-21T08:46:19;9.00;99.90
7516;DHT22;3799;47.184;8.538;2023-11-21T08:48:47;8.90;99.90
7516;DHT22;3799;47.184;8.538;2023-11-21T08:51:15;8.90;99.90
7516;DHT22;3799;47.184;8.538;2023-11-21T08:53:43;8.90;99.90
7516;DHT22;3799;47.184;8.538;2023-11-21T08:56:13;9.10;99.90
7516;DHT22;3799;47.184;8.538;2023-11-21T08:58:41;9.20;99.90
7516;DHT22;3799;47.184;8.538;2023-11-21T09:01:09;9.20;99.90
7516;DHT22;3799;47.184;8.538;2023-11-21T09:03:36;9.20;99.90
7516;DHT22;3799;47.184;8.538;2023-11-21T09:06:04;9.20;99.90
7516;DHT22;3799;47.184;8.538;2023-11-21T09:08:32;9.20;99.90
7516;DHT22;3799;47.184;8.538;2023-11-21T09:10:59;9.00;99.90
7516;DHT22;3799;47.184;8.538;2023-11-21T09:13:27;9.00;99.90
7516;DHT22;3799;47.184;8.538;2023-11-21T09:15:55;9.10;99.90
7516;DHT22;3799;47.184;8.538;2023-11-21T09:18:22;9.10;99.90
7516;DHT22;3799;47.184;8.538;2023-11-21T09:20:49;9.10;99.90
7516;DHT22;3799;47.184;8.538;2023-11-21T09:23:16;9.00;99.90
7516;DHT22;3799;47.184;8.538;2023-11-21T09:25:43;8.80;99.90
7516;DHT22;3799;47.184;8.538;2023-11-21T09:28:13;8.90;99.90
7516;DHT22;3799;47.184;8.538;2023-11-21T09:30:41;9.00;99.90
7516;DHT22;3799;47.184;8.538;2023-11-21T09:33:09;9.10;99.90
7516;DHT22;3799;47.184;8.538;2023-11-21T09:35:38;8.90;99.90
7516;DHT22;3799;47.184;8.538;2023-11-21T09:38:05;9.00;99.90
7516;DHT22;3799;47.184;8.538;2023-11-21T09:40:37;9.20;99.90
7516;DHT22;3799;47.184;8.538;2023-11-21T09:43:16;9.00;99.90
7516;DHT22;3799;47.184;8.538;2023-11-21T09:45:48;8.90;99.90
7516;DHT22;3799;47.184;8.538;2023-11-21T09:48:20;9.30;99.90
7516;DHT22;3799;47.184;8.538;2023-11-21T09:50:48;9.40;99.90
7516;DHT22;3799;47.184;8.538;2023-11-21T09:53:20;9.40;99.90
7516;DHT22;3799;47.184;8.538;2023-11-21T09:55:51;9.40;99.90
7516;DHT22;3799;47.184;8.538;2023-11-21T09:58:20;9.40;99.90
7516;DHT22;3799;47.184;8.538;2023-11-21T10:00:55;9.20;99.90
7516;DHT22;3799;47.184;8.538;2023-11-21T10:03:24;9.30;99.90
7516;DHT22;3799;47.184;8.538;2023-11-21T10:05:56;9.10;99.90
7516;DHT22;3799;47.184;8.538;2023-11-21T10:08:29;9.00;99.90
7516;DHT22;3799;47.184;8.538;2023-11-21T10:11:17;9.20;99.90
7516;DHT22;3799;47.184;8.538;2023-11-21T10:13:46;9.20;99.90
7516;DHT22;3799;47.184;8.538;2023-11-21T10:16:19;9.00;99.90
7516;DHT22;3799;47.184;8.538;2023-11-21T10:18:53;9.10;99.90
7516;DHT22;3799;47.184;8.538;2023-11-21T10:21:39;9.10;99.90
7516;DHT22;3799;47.184;8.538;2023-11-21T10:24:07;9.40;99.90
7516;DHT22;3799;47.184;8.538;2023-11-21T10:26:35;9.00;99.90
7516;DHT22;3799;47.184;8.538;2023-11-21T10:29:19;9.30;99.90
7516;DHT22;3799;47.184;8.538;2023-11-21T10:31:50;9.40;99.90
7516;DHT22;3799;47.184;8.538;2023-11-21T10:34:19;9.30;99.90
7516;DHT22;3799;47.184;8.538;2023-11-21T10:36:47;9.30;99.90
7516;DHT22;3799;47.184;8.538;2023-11-21T10:39:16;9.50;99.90
7516;DHT22;3799;47.184;8.538;2023-11-21T10:41:48;9.50;99.90
7516;DHT22;3799;47.184;8.538;2023-11-21T10:44:16;9.80;99.90
7516;DHT22;3799;47.184;8.538;2023-11-21T10:46:55;9.70;99.90
7516;DHT22;3799;47.184;8.538;2023-11-21T10:49:25;9.80;99.90
7516;DHT22;3799;47.184;8.538;2023-11-21T10:51:53;9.90;99.90
7516;DHT22;3799;47.184;8.538;2023-11-21T10:54:22;9.80;99.90
7516;DHT22;3799;47.184;8.538;2023-11-21T10:56:51;10.00;99.90
7516;DHT22;3799;47.184;8.538;2023-11-21T10:59:20;10.10;99.90
7516;DHT22;3799;47.184;8.538;2023-11-21T11:01:52;9.90;99.90
7516;DHT22;3799;47.184;8.538;2023-11-21T11:04:21;10.10;99.90
7516;DHT22;3799;47.184;8.538;2023-11-21T11:06:54;9.70;99.90
7516;DHT22;3799;47.184;8.538;2023-11-21T11:09:21;9.80;99.90
7516;DHT22;3799;47.184;8.538;2023-11-21T11:11:49;9.90;99.90
7516;DHT22;3799;47.184;8.538;2023-11-21T11:14:18;9.50;99.90
7516;DHT22;3799;47.184;8.538;2023-11-21T11:16:47;9.80;99.90
7516;DHT22;3799;47.184;8.538;2023-11-21T11:19:16;9.40;99.90
7516;DHT22;3799;47.184;8.538;2023-11-21T11:33:14;9.40;99.90
7516;DHT22;3799;47.184;8.538;2023-11-21T11:38:32;9.60;99.90
7516;DHT22;3799;47.184;8.538;2023-11-21T11:41:04;9.70;99.90
7516;DHT22;3799;47.184;8.538;2023-11-21T11:43:32;9.40;99.90
7516;DHT22;3799;47.184;8.538;2023-11-21T11:46:03;9.70;99.90
7516;DHT22;3799;47.184;8.538;2023-11-21T11:48:35;9.90;99.90
7516;DHT22;3799;47.184;8.538;2023-11-21T11:51:15;9.60;99.90
7516;DHT22;3799;47.184;8.538;2023-11-21T11:53:46;10.00;99.90
7516;DHT22;3799;47.184;8.538;2023-11-21T11:56:42;9.70;99.90
7516;DHT22;3799;47.184;8.538;2023-11-21T11:59:11;10.00;99.90
7516;DHT22;3799;47.184;8.538;2023-11-21T12:01:45;9.90;99.90
7516;DHT22;3799;47.184;8.538;2023-11-21T12:06:42;9.90;99.90
7516;DHT22;3799;47.184;8.538;2023-11-21T12:09:28;10.00;99.90
7516;DHT22;3799;47.184;8.538;2023-11-21T12:11:57;10.00;99.90
7516;DHT22;3799;47.184;8.538;2023-11-21T12:14:24;10.00;99.90
7516;DHT22;3799;47.184;8.538;2023-11-21T12:16:52;10.10;99.90
7516;DHT22;3799;47.184;8.538;2023-11-21T12:19:20;10.00;99.90
7516;DHT22;3799;47.184;8.538;2023-11-21T12:21:48;10.10;99.90
7516;DHT22;3799;47.184;8.538;2023-11-21T12:24:15;10.10;99.90
7516;DHT22;3799;47.184;8.538;2023-11-21T12:26:43;10.20;99.90
7516;DHT22;3799;47.184;8.538;2023-11-21T12:29:11;10.30;99.90
7516;DHT22;3799;47.184;8.538;2023-11-21T12:31:38;10.40;99.90
7516;DHT22;3799;47.184;8.538;2023-11-21T12:34:07;10.50;99.90
7516;DHT22;3799;47.184;8.538;2023-11-21T12:36:38;10.50;99.90
7516;DHT22;3799;47.184;8.538;2023-11-21T12:39:05;10.70;99.90
7516;DHT22;3799;47.184;8.538;2023-11-21T12:41:33;10.90;99.90
7516;DHT22;3799;47.184;8.538;2023-11-21T12:44:00;10.90;99.90
7516;DHT22;3799;47.184;8.538;2023-11-21T12:46:27;10.90;99.90
7516;DHT22;3799;47.184;8.538;2023-11-21T12:49:00;10.60;99.90
7516;DHT22;3799;47.184;8.538;2023-11-21T12:51:27;10.60;99.90
7516;DHT22;3799;47.184;8.538;2023-11-21T12:53:56;10.90;99.90
7516;DHT22;3799;47.184;8.538;2023-11-21T12:56:23;10.50;99.90
7516;DHT22;3799;47.184;8.538;2023-11-21T12:58:53;10.70;99.90
7516;DHT22;3799;47.184;8.538;2023-11-21T13:01:21;10.70;99.90
7516;DHT22;3799;47.184;8.538;2023-11-21T13:03:53;10.60;99.90
7516;DHT22;3799;47.184;8.538;2023-11-21T13:06:21;10.60;99.90
7516;DHT22;3799;47.184;8.538;2023-11-21T13:08:52;10.30;99.90
7516;DHT22;3799;47.184;8.538;2023-11-21T13:11:20;10.30;99.90
7516;DHT22;3799;47.184;8.538;2023-11-21T13:13:51;10.50;99.90
7516;DHT22;3799;47.184;8.538;2023-11-21T13:16:20;10.50;99.90
7516;DHT22;3799;47.184;8.538;2023-11-21T13:18:47;10.30;99.90
7516;DHT22;3799;47.184;8.538;2023-11-21T13:21:16;10.20;99.90
7516;DHT22;3799;47.184;8.538;2023-11-21T13:23:44;10.20;99.90
7516;DHT22;3799;47.184;8.538;2023-11-21T13:26:13;10.30;99.90
7516;DHT22;3799;47.184;8.538;2023-11-21T13:28:42;10.10;99.90
7516;DHT22;3799;47.184;8.538;2023-11-21T13:31:14;10.10;99.90
7516;DHT22;3799;47.184;8.538;2023-11-21T13:33:54;10.00;99.90
7516;DHT22;3799;47.184;8.538;2023-11-21T13:36:31;10.20;99.90
7516;DHT22;3799;47.184;8.538;2023-11-21T13:39:02;10.10;99.90
7516;DHT22;3799;47.184;8.538;2023-11-21T13:41:35;9.90;99.90
7516;DHT22;3799;47.184;8.538;2023-11-21T13:44:06;10.00;99.90
7516;DHT22;3799;47.184;8.538;2023-11-21T13:46:43;10.00;99.90
7516;DHT22;3799;47.184;8.538;2023-11-21T13:49:12;9.90;99.90
7516;DHT22;3799;47.184;8.538;2023-11-21T13:51:40;10.00;99.90
7516;DHT22;3799;47.184;8.538;2023-11-21T13:54:12;10.10;99.90
7516;DHT22;3799;47.184;8.538;2023-11-21T13:56:41;9.80;99.90
7516;DHT22;3799;47.184;8.538;2023-11-21T13:59:09;10.10;99.90
7516;DHT22;3799;47.184;8.538;2023-11-21T14:01:57;10.00;99.90
7516;DHT22;3799;47.184;8.538;2023-11-21T14:04:39;9.90;99.90
7516;DHT22;3799;47.184;8.538;2023-11-21T14:07:23;9.90;99.90
7516;DHT22;3799;47.184;8.538;2023-11-21T14:10:00;9.80;99.90
7516;DHT22;3799;47.184;8.538;2023-11-21T14:12:29;9.80;99.90
7516;DHT22;3799;47.184;8.538;2023-11-21T14:15:05;9.70;99.90
7516;DHT22;3799;47.184;8.538;2023-11-21T14:17:34;9.90;99.90
7516;DHT22;3799;47.184;8.538;2023-11-21T14:20:02;9.70;99.90
7516;DHT22;3799;47.184;8.538;2023-11-21T14:22:32;9.80;99.90
7516;DHT22;3799;47.184;8.538;2023-11-21T14:25:00;9.60;99.90
7516;DHT22;3799;47.184;8.538;2023-11-21T14:27:30;9.50;99.90
7516;DHT22;3799;47.184;8.538;2023-11-21T14:30:01;9.70;99.90
7516;DHT22;3799;47.184;8.538;2023-11-21T14:32:28;9.60;99.90
7516;DHT22;3799;47.184;8.538;2023-11-21T14:34:55;9.70;99.90
7516;DHT22;3799;47.184;8.538;2023-11-21T14:37:23;9.50;99.90
7516;DHT22;3799;47.184;8.538;2023-11-21T14:39:50;9.70;99.90
7516;DHT22;3799;47.184;8.538;2023-11-21T14:42:18;9.60;99.90
7516;DHT22;3799;47.184;8.538;2023-11-21T14:44:51;9.60;99.90
7516;DHT22;3799;47.184;8.538;2023-11-21T14:47:19;9.50;99.90
7516;DHT22;3799;47.184;8.538;2023-11-21T14:49:52;9.40;99.90
7516;DHT22;3799;47.184;8.538;2023-11-21T14:52:21;9.50;99.90
7516;DHT22;3799;47.184;8.538;2023-11-21T14:55:03;9.60;99.90
7516;DHT22;3799;47.184;8.538;2023-11-21T14:57:58;9.50;99.90
7516;DHT22;3799;47.184;8.538;2023-11-21T15:00:32;9.20;99.90
7516;DHT22;3799;47.184;8.538;2023-11-21T15:03:03;9.60;99.90
7516;DHT22;3799;47.184;8.538;2023-11-21T15:05:31;9.10;99.90
7516;DHT22;3799;47.184;8.538;2023-11-21T15:07:58;9.40;99.90
7516;DHT22;3799;47.184;8.538;2023-11-21T15:10:41;9.20;99.90
7516;DHT22;3799;47.184;8.538;2023-11-21T15:13:16;9.00;99.90
7516;DHT22;3799;47.184;8.538;2023-11-21T15:15:44;9.10;99.90
7516;DHT22;3799;47.184;8.538;2023-11-21T15:18:11;9.10;99.90
7516;DHT22;3799;47.184;8.538;2023-11-21T15:20:42;9.00;99.90
7516;DHT22;3799;47.184;8.538;2023-11-21T15:23:11;8.70;99.90
7516;DHT22;3799;47.184;8.538;2023-11-21T15:25:39;8.80;99.90
7516;DHT22;3799;47.184;8.538;2023-11-21T15:28:07;8.50;99.90
7516;DHT22;3799;47.184;8.538;2023-11-21T15:30:34;8.90;99.90
7516;DHT22;3799;47.184;8.538;2023-11-21T15:33:02;8.60;99.90
7516;DHT22;3799;47.184;8.538;2023-11-21T15:35:30;8.70;99.90
7516;DHT22;3799;47.184;8.538;2023-11-21T15:37:58;8.50;99.90
7516;DHT22;3799;47.184;8.538;2023-11-21T15:40:27;8.80;99.90
7516;DHT22;3799;47.184;8.538;2023-11-21T15:42:54;8.60;99.90
7516;DHT22;3799;47.184;8.538;2023-11-21T15:45:21;8.50;99.90
7516;DHT22;3799;47.184;8.538;2023-11-21T15:47:52;8.60;99.90
7516;DHT22;3799;47.184;8.538;2023-11-21T15:50:21;8.70;99.90
7516;DHT22;3799;47.184;8.538;2023-11-21T15:52:48;8.60;99.90
7516;DHT22;3799;47.184;8.538;2023-11-21T15:55:26;8.80;99.90
7516;DHT22;3799;47.184;8.538;2023-11-21T15:57:54;8.80;99.90
7516;DHT22;3799;47.184;8.538;2023-11-21T16:00:21;8.50;99.90
7516;DHT22;3799;47.184;8.538;2023-11-21T16:02:50;8.50;99.90
7516;DHT22;3799;47.184;8.538;2023-11-21T16:05:18;8.50;99.90
7516;DHT22;3799;47.184;8.538;2023-11-21T16:07:46;8.60;99.90
7516;DHT22;3799;47.184;8.538;2023-11-21T16:10:14;8.70;99.90
7516;DHT22;3799;47.184;8.538;2023-11-21T16:12:46;8.50;99.90
7516;DHT22;3799;47.184;8.538;2023-11-21T16:15:13;8.50;99.90
7516;DHT22;3799;47.184;8.538;2023-11-21T16:17:40;8.70;99.90
7516;DHT22;3799;47.184;8.538;2023-11-21T16:20:09;8.50;99.90
7516;DHT22;3799;47.184;8.538;2023-11-21T16:22:40;8.40;99.90
7516;DHT22;3799;47.184;8.538;2023-11-21T16:25:08;8.40;99.90
7516;DHT22;3799;47.184;8.538;2023-11-21T16:27:39;8.40;99.90
7516;DHT22;3799;47.184;8.538;2023-11-21T16:30:08;8.30;99.90
7516;DHT22;3799;47.184;8.538;2023-11-21T16:32:36;8.60;99.90
7516;DHT22;3799;47.184;8.538;2023-11-21T16:35:04;8.40;99.90
7516;DHT22;3799;47.184;8.538;2023-11-21T16:37:32;8.30;99.90
7516;DHT22;3799;47.184;8.538;2023-11-21T16:39:59;8.30;99.90
7516;DHT22;3799;47.184;8.538;2023-11-21T16:42:27;8.30;99.90